createdAt,value
2018-07-13T00:00:11.842Z,66.02
2018-07-13T00:00:43.425Z,65.99
2018-07-13T00:01:15.046Z,66.03
2018-07-13T00:01:46.621Z,66.10
2018-07-13T00:02:18.226Z,66.19
2018-07-13T00:02:49.813Z,66.18
2018-07-13T00:03:21.397Z,66.22
2018-07-13T00:03:52.993Z,66.20
2018-07-13T00:04:24.600Z,66.19
2018-07-13T00:04:56.192Z,66.21
2018-07-13T00:05:27.813Z,66.14
2018-07-13T00:05:59.408Z,66.27
2018-07-13T00:06:31.088Z,66.25
2018-07-13T00:07:02.678Z,66.30
2018-07-13T00:07:34.257Z,66.30
2018-07-13T00:08:05.881Z,66.29
2018-07-13T00:08:37.509Z,66.18
2018-07-13T00:09:09.117Z,66.21
2018-07-13T00:09:40.735Z,66.42
2018-07-13T00:10:12.332Z,66.37
2018-07-13T00:10:43.937Z,66.50
2018-07-13T00:11:15.521Z,66.36
2018-07-13T00:11:47.132Z,66.31
2018-07-13T00:12:18.713Z,66.41
2018-07-13T00:12:50.288Z,66.44
2018-07-13T00:13:21.890Z,66.48
2018-07-13T00:13:53.473Z,66.37
2018-07-13T00:14:25.050Z,66.46
2018-07-13T00:14:56.652Z,66.40
2018-07-13T00:15:28.266Z,66.40
2018-07-13T00:15:59.859Z,66.36
2018-07-13T00:16:31.481Z,66.54
2018-07-13T00:17:03.071Z,66.55
2018-07-13T00:17:34.674Z,66.31
2018-07-13T00:18:06.272Z,66.46
2018-07-13T00:18:37.868Z,66.42
2018-07-13T00:19:09.467Z,66.42
2018-07-13T00:19:41.073Z,66.39
2018-07-13T00:20:12.686Z,66.49
2018-07-13T00:20:44.290Z,66.58
2018-07-13T00:21:15.877Z,66.76
2018-07-13T00:21:47.477Z,66.40
2018-07-13T00:22:19.071Z,66.42
2018-07-13T00:22:50.652Z,66.54
2018-07-13T00:23:22.229Z,66.69
2018-07-13T00:23:53.842Z,66.67
2018-07-13T00:24:25.475Z,66.78
2018-07-13T00:24:57.081Z,66.85
2018-07-13T00:25:28.656Z,66.81
2018-07-13T00:26:00.248Z,66.77
2018-07-13T00:26:31.856Z,66.87
2018-07-13T00:27:03.509Z,66.92
2018-07-13T00:27:35.117Z,66.93
2018-07-13T00:28:06.721Z,67.00
2018-07-13T00:28:38.321Z,67.21
2018-07-13T00:29:09.901Z,67.18
2018-07-13T00:29:41.743Z,67.13
2018-07-13T00:30:13.394Z,67.04
2018-07-13T00:30:44.964Z,67.56
2018-07-13T00:31:16.576Z,67.41
2018-07-13T00:31:48.153Z,67.20
2018-07-13T00:32:19.753Z,67.32
2018-07-13T00:32:51.406Z,67.32
2018-07-13T00:33:22.991Z,67.20
2018-07-13T00:33:54.594Z,67.33
2018-07-13T00:34:26.181Z,67.37
2018-07-13T00:34:57.772Z,67.45
2018-07-13T00:35:29.354Z,67.47
2018-07-13T00:36:01.049Z,67.64
2018-07-13T00:36:32.620Z,67.49
2018-07-13T00:37:04.216Z,67.58
2018-07-13T00:37:35.825Z,67.70
2018-07-13T00:38:07.409Z,67.78
2018-07-13T00:38:38.985Z,67.66
2018-07-13T00:39:10.559Z,67.87
2018-07-13T00:39:42.142Z,67.83
2018-07-13T00:40:13.743Z,67.81
2018-07-13T00:40:45.375Z,67.83
2018-07-13T00:41:16.957Z,68.19
2018-07-13T00:41:48.556Z,68.10
2018-07-13T00:42:20.138Z,68.08
2018-07-13T00:42:51.760Z,68.18
2018-07-13T00:43:23.363Z,68.37
2018-07-13T00:43:54.946Z,68.12
2018-07-13T00:44:26.521Z,68.28
2018-07-13T00:44:58.125Z,68.40
2018-07-13T00:45:29.729Z,68.36
2018-07-13T00:46:01.334Z,68.45
2018-07-13T00:46:32.916Z,68.46
2018-07-13T00:47:04.522Z,68.41
2018-07-13T00:47:36.134Z,68.41
2018-07-13T00:48:07.758Z,68.54
2018-07-13T00:48:39.330Z,68.39
2018-07-13T00:49:10.904Z,68.57
2018-07-13T00:49:42.490Z,68.48
2018-07-13T00:50:14.074Z,68.90
2018-07-13T00:50:45.668Z,68.80
2018-07-13T00:51:17.253Z,68.79
2018-07-13T00:51:48.858Z,68.93
2018-07-13T00:52:20.461Z,68.66
2018-07-13T00:52:52.065Z,68.96
2018-07-13T00:53:23.704Z,68.66
2018-07-13T00:53:55.293Z,68.90
2018-07-13T00:54:26.864Z,68.58
2018-07-13T00:54:58.509Z,68.58
2018-07-13T00:55:30.114Z,68.58
2018-07-13T00:56:01.710Z,68.85
2018-07-13T00:56:33.290Z,69.23
2018-07-13T00:57:04.873Z,69.11
2018-07-13T00:57:36.464Z,69.13
2018-07-13T00:58:08.050Z,69.11
2018-07-13T00:58:39.637Z,69.32
2018-07-13T00:59:11.218Z,69.51
2018-07-13T00:59:42.821Z,69.24
2018-07-13T01:00:14.429Z,69.04
2018-07-13T01:00:46.085Z,69.04
2018-07-13T01:01:17.693Z,69.21
2018-07-13T01:01:49.286Z,68.76
2018-07-13T01:02:20.876Z,69.15
2018-07-13T01:02:52.444Z,68.85
2018-07-13T01:03:24.043Z,69.04
2018-07-13T01:03:55.654Z,68.94
2018-07-13T01:04:27.261Z,69.05
2018-07-13T01:04:58.889Z,69.10
2018-07-13T01:05:30.498Z,68.95
2018-07-13T01:06:02.110Z,68.99
2018-07-13T01:06:33.722Z,69.00
2018-07-13T01:07:05.325Z,69.01
2018-07-13T01:07:36.938Z,69.17
2018-07-13T01:08:08.546Z,68.79
2018-07-13T01:08:40.130Z,68.65
2018-07-13T01:09:11.719Z,68.86
2018-07-13T01:09:43.393Z,68.96
2018-07-13T01:10:15.034Z,68.83
2018-07-13T01:10:46.641Z,68.80
2018-07-13T01:11:18.214Z,69.03
2018-07-13T01:11:49.822Z,68.79
2018-07-13T01:12:21.413Z,68.80
2018-07-13T01:12:53.058Z,68.87
2018-07-13T01:13:24.657Z,69.00
2018-07-13T01:13:56.246Z,68.95
2018-07-13T01:14:27.855Z,68.82
2018-07-13T01:14:59.456Z,68.81
2018-07-13T01:15:31.048Z,68.64
2018-07-13T01:16:02.630Z,68.79
2018-07-13T01:16:34.238Z,68.89
2018-07-13T01:17:05.822Z,68.67
2018-07-13T01:17:37.392Z,68.60
2018-07-13T01:18:09.024Z,68.61
2018-07-13T01:18:40.596Z,68.75
2018-07-13T01:19:12.198Z,68.77
2018-07-13T01:19:43.792Z,68.67
2018-07-13T01:20:15.397Z,68.92
2018-07-13T01:20:46.971Z,68.84
2018-07-13T01:21:18.572Z,68.78
2018-07-13T01:21:50.161Z,68.77
2018-07-13T01:22:21.849Z,68.73
2018-07-13T01:22:53.430Z,68.94
2018-07-13T01:23:25.036Z,68.90
2018-07-13T01:23:56.630Z,68.78
2018-07-13T01:24:28.233Z,68.76
2018-07-13T01:24:59.817Z,69.08
2018-07-13T01:25:31.449Z,68.99
2018-07-13T01:26:02.992Z,68.95
2018-07-13T01:26:34.589Z,68.78
2018-07-13T01:27:06.197Z,68.96
2018-07-13T01:27:37.849Z,68.88
2018-07-13T01:28:09.433Z,69.04
2018-07-13T01:28:40.999Z,68.93
2018-07-13T01:29:12.605Z,69.24
2018-07-13T01:29:44.213Z,69.19
2018-07-13T01:30:15.784Z,69.06
2018-07-13T01:30:47.365Z,69.57
2018-07-13T01:31:18.955Z,69.05
2018-07-13T01:31:50.561Z,68.85
2018-07-13T01:32:22.170Z,68.74
2018-07-13T01:32:53.782Z,68.91
2018-07-13T01:33:25.437Z,68.92
2018-07-13T01:33:57.011Z,68.96
2018-07-13T01:34:28.613Z,69.13
2018-07-13T01:35:00.217Z,68.79
2018-07-13T01:35:31.801Z,68.90
2018-07-13T01:36:03.406Z,69.33
2018-07-13T01:36:35.009Z,68.85
2018-07-13T01:37:06.614Z,68.97
2018-07-13T01:37:38.217Z,68.91
2018-07-13T01:38:09.830Z,69.27
2018-07-13T01:38:41.476Z,69.18
2018-07-13T01:39:13.044Z,68.94
2018-07-13T01:39:44.645Z,68.92
2018-07-13T01:40:16.252Z,68.77
2018-07-13T01:40:47.841Z,69.00
2018-07-13T01:41:19.450Z,68.79
2018-07-13T01:41:51.043Z,68.79
2018-07-13T01:42:22.653Z,68.85
2018-07-13T01:42:54.266Z,68.86
2018-07-13T01:43:25.900Z,68.92
2018-07-13T01:43:57.510Z,68.59
2018-07-13T01:44:29.134Z,68.82
2018-07-13T01:45:00.709Z,68.66
2018-07-13T01:45:32.289Z,68.87
2018-07-13T01:46:03.873Z,68.62
2018-07-13T01:46:35.453Z,68.75
2018-07-13T01:47:07.037Z,68.77
2018-07-13T01:47:38.637Z,68.74
2018-07-13T01:48:10.248Z,68.60
2018-07-13T01:48:41.820Z,68.77
2018-07-13T01:49:13.419Z,68.70
2018-07-13T01:49:45.072Z,68.60
2018-07-13T01:50:16.682Z,68.59
2018-07-13T01:50:48.269Z,68.81
2018-07-13T01:51:19.840Z,68.66
2018-07-13T01:51:51.418Z,68.78
2018-07-13T01:52:23.002Z,68.65
2018-07-13T01:52:54.602Z,68.69
2018-07-13T01:53:26.182Z,68.64
2018-07-13T01:53:57.762Z,68.70
2018-07-13T01:54:29.362Z,68.51
2018-07-13T01:55:00.998Z,68.63
2018-07-13T01:55:32.582Z,68.51
2018-07-13T01:56:04.174Z,68.77
2018-07-13T01:56:35.764Z,68.63
2018-07-13T01:57:07.346Z,68.80
2018-07-13T01:57:38.980Z,68.79
2018-07-13T01:58:10.544Z,68.88
2018-07-13T01:58:42.116Z,69.02
2018-07-13T01:59:13.721Z,69.04
2018-07-13T01:59:45.329Z,68.92
2018-07-13T02:00:16.900Z,68.98
2018-07-13T02:00:48.472Z,69.25
2018-07-13T02:01:20.094Z,69.08
2018-07-13T02:01:51.750Z,69.07
2018-07-13T02:02:23.366Z,69.14
2018-07-13T02:02:54.977Z,69.06
2018-07-13T02:03:26.569Z,69.11
2018-07-13T02:03:58.154Z,69.04
2018-07-13T02:04:29.757Z,69.17
2018-07-13T02:05:01.388Z,69.23
2018-07-13T02:05:32.977Z,69.15
2018-07-13T02:06:04.556Z,69.31
2018-07-13T02:06:36.160Z,69.23
2018-07-13T02:07:07.785Z,69.19
2018-07-13T02:07:39.394Z,69.17
2018-07-13T02:08:11.005Z,69.32
2018-07-13T02:08:42.639Z,69.14
2018-07-13T02:09:14.233Z,69.14
2018-07-13T02:09:45.813Z,69.25
2018-07-13T02:10:17.391Z,69.16
2018-07-13T02:10:48.998Z,69.14
2018-07-13T02:11:20.576Z,69.26
2018-07-13T02:11:52.182Z,69.36
2018-07-13T02:12:23.793Z,69.30
2018-07-13T02:12:55.364Z,69.22
2018-07-13T02:13:27.012Z,69.17
2018-07-13T02:13:58.594Z,69.20
2018-07-13T02:14:30.196Z,69.20
2018-07-13T02:15:01.804Z,69.13
2018-07-13T02:15:33.389Z,69.29
2018-07-13T02:16:04.970Z,69.20
2018-07-13T02:16:36.540Z,69.40
2018-07-13T02:17:08.146Z,69.13
2018-07-13T02:17:39.735Z,69.08
2018-07-13T02:18:11.353Z,69.32
2018-07-13T02:18:42.947Z,69.19
2018-07-13T02:19:14.529Z,69.24
2018-07-13T02:19:46.116Z,69.35
2018-07-13T02:20:17.698Z,69.36
2018-07-13T02:20:49.282Z,69.35
2018-07-13T02:21:20.900Z,69.27
2018-07-13T02:21:52.489Z,69.33
2018-07-13T02:22:24.089Z,69.36
2018-07-13T02:22:55.701Z,69.50
2018-07-13T02:23:27.304Z,69.68
2018-07-13T02:23:58.913Z,69.29
2018-07-13T02:24:30.498Z,69.58
2018-07-13T02:25:02.082Z,69.32
2018-07-13T02:25:33.680Z,69.40
2018-07-13T02:26:05.287Z,69.33
2018-07-13T02:26:36.907Z,69.48
2018-07-13T02:27:08.493Z,69.78
2018-07-13T02:27:40.093Z,69.26
2018-07-13T02:28:11.665Z,69.46
2018-07-13T02:28:43.269Z,69.51
2018-07-13T02:29:14.844Z,69.62
2018-07-13T02:29:46.428Z,69.51
2018-07-13T02:30:18.001Z,69.75
2018-07-13T02:30:49.610Z,69.48
2018-07-13T02:31:21.257Z,69.40
2018-07-13T02:31:52.874Z,69.32
2018-07-13T02:32:24.463Z,69.66
2018-07-13T02:32:56.073Z,69.28
2018-07-13T02:33:27.654Z,69.48
2018-07-13T02:33:59.331Z,69.33
2018-07-13T02:34:30.892Z,69.29
2018-07-13T02:35:02.514Z,69.26
2018-07-13T02:35:34.093Z,69.58
2018-07-13T02:36:05.674Z,69.44
2018-07-13T02:36:37.245Z,69.51
2018-07-13T02:37:08.832Z,69.17
2018-07-13T02:37:40.480Z,69.30
2018-07-13T02:38:12.085Z,69.12
2018-07-13T02:38:43.664Z,69.21
2018-07-13T02:39:15.267Z,69.19
2018-07-13T02:39:46.872Z,69.20
2018-07-13T02:40:18.455Z,69.20
2018-07-13T02:40:50.042Z,69.33
2018-07-13T02:41:21.649Z,69.37
2018-07-13T02:41:53.257Z,69.44
2018-07-13T02:42:24.846Z,69.32
2018-07-13T02:42:56.490Z,69.40
2018-07-13T02:43:28.077Z,69.18
2018-07-13T02:43:59.661Z,69.30
2018-07-13T02:44:31.228Z,69.27
2018-07-13T02:45:02.836Z,69.38
2018-07-13T02:45:34.446Z,69.38
2018-07-13T02:46:06.039Z,69.51
2018-07-13T02:46:37.637Z,69.45
2018-07-13T02:47:09.237Z,69.62
2018-07-13T02:47:40.896Z,69.43
2018-07-13T02:48:12.506Z,69.21
2018-07-13T02:48:44.114Z,69.39
2018-07-13T02:49:15.743Z,69.38
2018-07-13T02:49:47.361Z,69.51
2018-07-13T02:50:18.968Z,69.64
2018-07-13T02:50:50.590Z,69.45
2018-07-13T02:51:22.182Z,69.21
2018-07-13T02:51:53.756Z,69.24
2018-07-13T02:52:25.370Z,69.48
2018-07-13T02:52:56.994Z,69.31
2018-07-13T02:53:28.597Z,69.45
2018-07-13T02:54:00.205Z,69.44
2018-07-13T02:54:31.789Z,69.54
2018-07-13T02:55:03.401Z,69.20
2018-07-13T02:55:34.981Z,69.09
2018-07-13T02:56:06.591Z,69.29
2018-07-13T02:56:38.198Z,69.21
2018-07-13T02:57:09.825Z,69.10
2018-07-13T02:57:41.406Z,69.30
2018-07-13T02:58:13.014Z,69.46
2018-07-13T02:58:44.643Z,69.30
2018-07-13T02:59:16.223Z,69.38
2018-07-13T02:59:47.825Z,69.38
2018-07-13T03:00:19.414Z,69.56
2018-07-13T03:00:50.988Z,69.15
2018-07-13T03:01:22.570Z,69.29
2018-07-13T03:01:54.209Z,69.29
2018-07-13T03:02:25.789Z,69.44
2018-07-13T03:02:57.402Z,69.24
2018-07-13T03:03:28.993Z,69.38
2018-07-13T03:04:00.584Z,69.39
2018-07-13T03:04:32.174Z,69.30
2018-07-13T03:05:03.785Z,69.23
2018-07-13T03:05:35.389Z,69.39
2018-07-13T03:06:06.983Z,69.59
2018-07-13T03:06:38.565Z,69.30
2018-07-13T03:07:10.204Z,69.55
2018-07-13T03:07:41.813Z,69.72
2018-07-13T03:08:13.430Z,69.65
2018-07-13T03:08:45.033Z,69.63
2018-07-13T03:09:16.625Z,69.68
2018-07-13T03:09:48.196Z,69.60
2018-07-13T03:10:19.782Z,69.58
2018-07-13T03:10:51.352Z,69.65
2018-07-13T03:11:22.944Z,69.75
2018-07-13T03:11:54.516Z,69.50
2018-07-13T03:12:26.128Z,69.58
2018-07-13T03:12:57.729Z,69.80
2018-07-13T03:13:29.336Z,69.64
2018-07-13T03:14:00.941Z,69.66
2018-07-13T03:14:32.570Z,69.56
2018-07-13T03:15:04.158Z,69.89
2018-07-13T03:15:35.761Z,69.94
2018-07-13T03:16:07.444Z,69.86
2018-07-13T03:16:39.025Z,69.57
2018-07-13T03:17:10.619Z,69.60
2018-07-13T03:17:42.217Z,69.59
2018-07-13T03:18:13.788Z,69.62
2018-07-13T03:18:45.410Z,69.58
2018-07-13T03:19:16.976Z,69.55
2018-07-13T03:19:48.552Z,69.76
2018-07-13T03:20:20.157Z,69.86
2018-07-13T03:20:51.756Z,69.85
2018-07-13T03:21:23.415Z,69.52
2018-07-13T03:21:55.034Z,69.55
2018-07-13T03:22:26.642Z,69.84
2018-07-13T03:22:58.238Z,69.68
2018-07-13T03:23:29.850Z,69.55
2018-07-13T03:24:01.439Z,69.79
2018-07-13T03:24:33.008Z,69.75
2018-07-13T03:25:04.610Z,69.59
2018-07-13T03:25:36.232Z,69.75
2018-07-13T03:26:07.809Z,69.80
2018-07-13T03:26:39.432Z,69.79
2018-07-13T03:27:11.041Z,69.65
2018-07-13T03:27:42.653Z,69.77
2018-07-13T03:28:14.252Z,69.70
2018-07-13T03:28:45.843Z,69.82
2018-07-13T03:29:17.448Z,69.71
2018-07-13T03:29:49.044Z,69.95
2018-07-13T03:30:20.644Z,70.05
2018-07-13T03:30:52.229Z,69.87
2018-07-13T03:31:23.829Z,69.63
2018-07-13T03:31:55.454Z,69.85
2018-07-13T03:32:27.037Z,69.79
2018-07-13T03:32:58.604Z,69.68
2018-07-13T03:33:30.196Z,69.72
2018-07-13T03:34:01.793Z,69.80
2018-07-13T03:34:33.371Z,69.89
2018-07-13T03:35:04.972Z,69.91
2018-07-13T03:35:36.572Z,69.79
2018-07-13T03:36:08.178Z,69.84
2018-07-13T03:36:39.826Z,69.85
2018-07-13T03:37:11.404Z,70.09
2018-07-13T03:37:43.006Z,69.98
2018-07-13T03:38:14.618Z,69.92
2018-07-13T03:38:46.197Z,69.79
2018-07-13T03:39:17.778Z,70.05
2018-07-13T03:39:49.353Z,70.02
2018-07-13T03:40:21.000Z,70.01
2018-07-13T03:40:52.575Z,69.80
2018-07-13T03:41:24.181Z,70.07
2018-07-13T03:41:55.796Z,70.12
2018-07-13T03:42:27.406Z,69.75
2018-07-13T03:42:59.013Z,69.80
2018-07-13T03:43:30.606Z,69.76
2018-07-13T03:44:02.273Z,69.97
2018-07-13T03:44:33.849Z,70.11
2018-07-13T03:45:05.434Z,69.78
2018-07-13T03:45:37.017Z,69.88
2018-07-13T03:46:08.634Z,69.82
2018-07-13T03:46:40.262Z,70.10
2018-07-13T03:47:11.861Z,69.89
2018-07-13T03:47:43.433Z,70.08
2018-07-13T03:48:15.061Z,69.86
2018-07-13T03:48:46.638Z,70.06
2018-07-13T03:49:18.235Z,69.93
2018-07-13T03:49:49.812Z,70.03
2018-07-13T03:50:21.417Z,70.12
2018-07-13T03:50:52.997Z,69.93
2018-07-13T03:51:24.575Z,69.77
2018-07-13T03:51:56.212Z,69.90
2018-07-13T03:52:27.802Z,69.97
2018-07-13T03:52:59.381Z,69.91
2018-07-13T03:53:30.981Z,69.98
2018-07-13T03:54:02.618Z,69.85
2018-07-13T03:54:34.203Z,69.93
2018-07-13T03:55:05.799Z,69.93
2018-07-13T03:55:37.449Z,69.79
2018-07-13T03:56:09.021Z,70.00
2018-07-13T03:56:40.621Z,69.93
2018-07-13T03:57:12.203Z,70.03
2018-07-13T03:57:43.805Z,70.14
2018-07-13T03:58:15.390Z,69.97
2018-07-13T03:58:46.973Z,69.97
2018-07-13T03:59:18.563Z,70.18
2018-07-13T03:59:50.146Z,69.98
2018-07-13T04:00:21.740Z,70.15
2018-07-13T04:00:53.340Z,70.00
2018-07-13T04:01:24.990Z,70.00
2018-07-13T04:01:56.590Z,69.82
2018-07-13T04:02:28.164Z,70.15
2018-07-13T04:02:59.756Z,69.90
2018-07-13T04:03:31.361Z,69.89
2018-07-13T04:04:02.974Z,69.93
2018-07-13T04:04:34.573Z,70.07
2018-07-13T04:05:06.185Z,70.00
2018-07-13T04:05:37.769Z,70.22
2018-07-13T04:06:09.374Z,70.01
2018-07-13T04:06:40.958Z,69.96
2018-07-13T04:07:12.548Z,69.98
2018-07-13T04:07:44.144Z,70.04
2018-07-13T04:08:15.733Z,69.88
2018-07-13T04:08:47.313Z,70.16
2018-07-13T04:09:18.904Z,70.03
2018-07-13T04:09:50.479Z,69.93
2018-07-13T04:10:22.058Z,70.23
2018-07-13T04:10:53.701Z,69.87
2018-07-13T04:11:25.297Z,69.93
2018-07-13T04:11:56.922Z,70.10
2018-07-13T04:12:28.501Z,69.95
2018-07-13T04:13:00.074Z,70.09
2018-07-13T04:13:31.654Z,69.91
2018-07-13T04:14:03.234Z,70.22
2018-07-13T04:14:34.832Z,69.85
2018-07-13T04:15:06.445Z,69.78
2018-07-13T04:15:38.058Z,69.80
2018-07-13T04:16:09.642Z,69.88
2018-07-13T04:16:41.222Z,70.17
2018-07-13T04:17:12.843Z,70.01
2018-07-13T04:17:44.445Z,69.81
2018-07-13T04:18:16.020Z,70.12
2018-07-13T04:18:47.598Z,70.16
2018-07-13T04:19:19.201Z,70.15
2018-07-13T04:19:50.781Z,69.80
2018-07-13T04:20:22.381Z,69.81
2018-07-13T04:20:53.991Z,70.04
2018-07-13T04:21:25.573Z,69.94
2018-07-13T04:21:57.213Z,69.99
2018-07-13T04:22:28.788Z,70.10
2018-07-13T04:23:00.434Z,69.92
2018-07-13T04:23:32.012Z,70.15
2018-07-13T04:24:03.580Z,70.20
2018-07-13T04:24:35.172Z,70.30
2018-07-13T04:25:06.744Z,69.55
2018-07-13T04:25:38.321Z,69.44
2018-07-13T04:26:09.906Z,69.49
2018-07-13T04:26:41.509Z,69.71
2018-07-13T04:27:13.093Z,69.79
2018-07-13T04:27:44.715Z,69.77
2018-07-13T04:28:16.357Z,70.09
2018-07-13T04:28:47.959Z,69.78
2018-07-13T04:29:19.552Z,70.31
2018-07-13T04:29:51.129Z,70.29
2018-07-13T04:30:22.769Z,70.28
2018-07-13T04:30:54.393Z,70.49
2018-07-13T04:31:25.979Z,70.34
2018-07-13T04:31:57.567Z,70.61
2018-07-13T04:32:29.173Z,70.19
2018-07-13T04:33:00.821Z,70.29
2018-07-13T04:33:32.396Z,70.50
2018-07-13T04:34:03.977Z,70.13
2018-07-13T04:34:35.568Z,70.01
2018-07-13T04:35:07.172Z,70.61
2018-07-13T04:35:38.781Z,70.07
2018-07-13T04:36:10.370Z,69.86
2018-07-13T04:36:41.962Z,69.67
2018-07-13T04:37:13.566Z,68.77
2018-07-13T04:37:45.212Z,67.56
2018-07-13T04:38:16.817Z,66.59
2018-07-13T04:38:48.416Z,65.78
2018-07-13T04:39:19.992Z,64.71
2018-07-13T04:39:51.570Z,64.14
2018-07-13T04:40:23.173Z,63.75
2018-07-13T04:40:54.758Z,63.35
2018-07-13T04:41:26.353Z,63.10
2018-07-13T04:41:57.957Z,63.14
2018-07-13T04:42:29.552Z,62.51
2018-07-13T04:43:01.182Z,62.30
2018-07-13T04:43:32.766Z,61.53
2018-07-13T04:44:04.347Z,61.06
2018-07-13T04:44:35.919Z,60.76
2018-07-13T04:45:07.522Z,60.27
2018-07-13T04:45:39.134Z,59.89
2018-07-13T04:46:10.725Z,60.68
2018-07-13T04:46:42.369Z,62.03
2018-07-13T04:47:13.944Z,63.30
2018-07-13T04:47:45.558Z,64.45
2018-07-13T04:48:17.141Z,65.64
2018-07-13T04:48:48.722Z,66.43
2018-07-13T04:49:20.324Z,67.07
2018-07-13T04:49:53.046Z,67.56
2018-07-13T04:50:23.576Z,67.89
2018-07-13T04:50:55.202Z,68.20
2018-07-13T04:51:26.799Z,68.62
2018-07-13T04:51:58.381Z,68.68
2018-07-13T04:52:29.986Z,68.97
2018-07-13T04:53:01.570Z,69.02
2018-07-13T04:53:33.163Z,69.13
2018-07-13T04:54:04.772Z,69.29
2018-07-13T04:54:36.380Z,69.32
2018-07-13T04:55:07.965Z,69.32
2018-07-13T04:55:39.590Z,69.36
2018-07-13T04:56:11.193Z,69.31
2018-07-13T04:56:42.773Z,69.25
2018-07-13T04:57:14.349Z,69.39
2018-07-13T04:57:45.949Z,69.37
2018-07-13T04:58:17.563Z,69.57
2018-07-13T04:58:49.135Z,69.34
2018-07-13T04:59:20.770Z,69.34
2018-07-13T04:59:52.373Z,69.46
2018-07-13T05:00:23.972Z,69.57
2018-07-13T05:00:55.617Z,69.46
2018-07-13T05:01:27.221Z,69.58
2018-07-13T05:01:58.831Z,69.52
2018-07-13T05:02:30.428Z,69.51
2018-07-13T05:03:02.062Z,69.48
2018-07-13T05:03:33.637Z,69.57
2018-07-13T05:04:05.218Z,69.52
2018-07-13T05:04:36.816Z,69.53
2018-07-13T05:05:08.421Z,69.54
2018-07-13T05:05:40.014Z,69.57
2018-07-13T05:06:11.616Z,69.51
2018-07-13T05:06:43.211Z,69.62
2018-07-13T05:07:14.818Z,69.44
2018-07-13T05:07:46.388Z,69.48
2018-07-13T05:08:17.956Z,69.52
2018-07-13T05:08:49.548Z,69.42
2018-07-13T05:09:21.153Z,69.57
2018-07-13T05:09:52.758Z,69.45
2018-07-13T05:10:24.410Z,69.50
2018-07-13T05:10:56.025Z,69.42
2018-07-13T05:11:27.605Z,69.37
2018-07-13T05:11:59.196Z,69.45
2018-07-13T05:12:30.791Z,69.41
2018-07-13T05:13:02.417Z,69.45
2018-07-13T05:13:34.017Z,69.44
2018-07-13T05:14:05.604Z,69.52
2018-07-13T05:14:37.199Z,69.46
2018-07-13T05:15:08.775Z,69.49
2018-07-13T05:15:40.359Z,69.49
2018-07-13T05:16:11.944Z,69.40
2018-07-13T05:16:43.556Z,69.76
2018-07-13T05:17:15.170Z,69.81
2018-07-13T05:17:46.759Z,69.79
2018-07-13T05:18:18.362Z,69.69
2018-07-13T05:18:49.976Z,69.73
2018-07-13T05:19:21.576Z,69.74
2018-07-13T05:19:53.172Z,69.79
2018-07-13T05:20:24.782Z,69.76
2018-07-13T05:20:56.369Z,69.80
2018-07-13T05:21:28.030Z,69.87
2018-07-13T05:21:59.590Z,69.92
2018-07-13T05:22:31.197Z,69.82
2018-07-13T05:23:02.790Z,69.82
2018-07-13T05:23:34.360Z,70.08
2018-07-13T05:24:05.928Z,69.93
2018-07-13T05:24:37.530Z,69.91
2018-07-13T05:25:09.137Z,70.01
2018-07-13T05:25:40.712Z,69.96
2018-07-13T05:26:12.280Z,69.86
2018-07-13T05:26:43.886Z,69.88
2018-07-13T05:27:15.614Z,69.83
2018-07-13T05:27:47.235Z,69.86
2018-07-13T05:28:29.002Z,69.97
2018-07-13T05:29:00.609Z,70.12
2018-07-13T05:29:32.216Z,70.00
2018-07-13T05:30:03.811Z,70.01
2018-07-13T05:30:36.181Z,69.94
2018-07-13T05:31:07.782Z,70.26
2018-07-13T05:31:39.449Z,70.10
2018-07-13T05:32:11.032Z,70.02
2018-07-13T05:32:42.609Z,70.12
2018-07-13T05:33:14.224Z,70.02
2018-07-13T05:33:45.828Z,70.00
2018-07-13T05:34:17.437Z,70.19
2018-07-13T05:34:49.036Z,70.27
2018-07-13T05:35:20.641Z,70.44
2018-07-13T05:35:52.268Z,70.13
2018-07-13T05:36:23.893Z,70.14
2018-07-13T05:36:55.481Z,70.14
2018-07-13T05:37:27.085Z,69.96
2018-07-13T05:37:58.670Z,70.01
2018-07-13T05:38:30.277Z,70.12
2018-07-13T05:39:01.890Z,70.09
2018-07-13T05:39:33.471Z,70.13
2018-07-13T05:40:05.043Z,70.17
2018-07-13T05:40:36.637Z,70.07
2018-07-13T05:41:08.252Z,70.22
2018-07-13T05:41:39.831Z,70.00
2018-07-13T05:42:11.408Z,70.26
2018-07-13T05:42:42.980Z,70.43
2018-07-13T05:43:14.600Z,70.04
2018-07-13T05:43:46.171Z,70.18
2018-07-13T05:44:17.744Z,70.31
2018-07-13T05:44:49.316Z,70.45
2018-07-13T05:45:20.939Z,70.22
2018-07-13T05:45:52.553Z,70.45
2018-07-13T05:46:24.153Z,70.25
2018-07-13T05:46:55.766Z,70.55
2018-07-13T05:47:27.350Z,70.24
2018-07-13T05:47:58.949Z,70.42
2018-07-13T05:48:30.617Z,70.21
2018-07-13T05:49:02.230Z,70.30
2018-07-13T05:49:33.890Z,70.26
2018-07-13T05:50:05.464Z,70.03
2018-07-13T05:50:37.078Z,70.38
2018-07-13T05:51:08.656Z,70.09
2018-07-13T05:51:40.241Z,70.79
2018-07-13T05:52:11.832Z,70.28
2018-07-13T05:52:43.431Z,70.04
2018-07-13T05:53:15.028Z,70.12
2018-07-13T05:53:46.640Z,70.16
2018-07-13T05:54:18.212Z,70.24
2018-07-13T05:54:49.813Z,70.12
2018-07-13T05:55:21.400Z,70.09
2018-07-13T05:55:52.972Z,70.07
2018-07-13T05:56:24.558Z,70.19
2018-07-13T05:56:56.144Z,70.05
2018-07-13T05:57:27.753Z,70.41
2018-07-13T05:57:59.383Z,70.15
2018-07-13T05:58:31.046Z,70.11
2018-07-13T05:59:02.653Z,69.96
2018-07-13T05:59:34.242Z,70.09
2018-07-13T06:00:05.855Z,70.01
2018-07-13T06:00:37.432Z,69.99
2018-07-13T06:01:09.042Z,69.67
2018-07-13T06:01:40.629Z,69.42
2018-07-13T06:02:12.218Z,69.40
2018-07-13T06:02:43.821Z,69.21
2018-07-13T06:03:15.426Z,69.21
2018-07-13T06:03:47.078Z,69.35
2018-07-13T06:04:18.659Z,69.43
2018-07-13T06:04:50.266Z,69.44
2018-07-13T06:05:21.839Z,69.54
2018-07-13T06:05:53.441Z,69.54
2018-07-13T06:06:25.050Z,69.75
2018-07-13T06:06:56.656Z,69.69
2018-07-13T06:07:28.295Z,69.75
2018-07-13T06:07:59.892Z,69.91
2018-07-13T06:08:31.486Z,69.76
2018-07-13T06:09:03.079Z,70.05
2018-07-13T06:09:34.665Z,69.75
2018-07-13T06:10:06.273Z,69.75
2018-07-13T06:10:37.909Z,69.97
2018-07-13T06:11:09.564Z,69.81
2018-07-13T06:11:41.170Z,69.87
2018-07-13T06:12:12.768Z,70.00
2018-07-13T06:12:44.358Z,69.88
2018-07-13T06:13:15.952Z,69.82
2018-07-13T06:13:47.562Z,70.20
2018-07-13T06:14:19.150Z,69.87
2018-07-13T06:14:50.745Z,69.76
2018-07-13T06:15:22.366Z,69.58
2018-07-13T06:15:53.994Z,69.04
2018-07-13T06:16:25.576Z,68.59
2018-07-13T06:16:57.172Z,68.16
2018-07-13T06:17:28.805Z,68.11
2018-07-13T06:18:00.389Z,68.08
2018-07-13T06:18:31.997Z,67.85
2018-07-13T06:19:03.600Z,67.82
2018-07-13T06:19:35.209Z,67.71
2018-07-13T06:20:06.804Z,67.64
2018-07-13T06:20:38.413Z,67.64
2018-07-13T06:21:10.020Z,67.68
2018-07-13T06:21:41.701Z,67.76
2018-07-13T06:22:13.330Z,68.03
2018-07-13T06:22:44.900Z,67.83
2018-07-13T06:23:16.510Z,67.88
2018-07-13T06:23:48.085Z,67.78
2018-07-13T06:24:19.761Z,67.77
2018-07-13T06:24:51.304Z,67.97
2018-07-13T06:25:22.949Z,67.68
2018-07-13T06:25:54.544Z,67.78
2018-07-13T06:26:26.153Z,67.70
2018-07-13T06:26:57.748Z,67.80
2018-07-13T06:27:29.360Z,67.66
2018-07-13T06:28:00.945Z,67.42
2018-07-13T06:28:32.529Z,67.40
2018-07-13T06:29:04.128Z,67.53
2018-07-13T06:29:35.718Z,67.47
2018-07-13T06:30:07.349Z,67.45
2018-07-13T06:30:38.946Z,67.62
2018-07-13T06:31:10.553Z,67.52
2018-07-13T06:31:42.136Z,67.44
2018-07-13T06:32:13.746Z,67.32
2018-07-13T06:32:45.397Z,67.27
2018-07-13T06:33:16.986Z,67.40
2018-07-13T06:33:48.552Z,67.35
2018-07-13T06:34:20.167Z,67.35
2018-07-13T06:34:51.750Z,67.29
2018-07-13T06:35:23.348Z,67.35
2018-07-13T06:35:54.933Z,67.38
2018-07-13T06:36:26.509Z,67.34
2018-07-13T06:36:58.106Z,67.35
2018-07-13T06:37:29.709Z,67.20
2018-07-13T06:38:01.312Z,67.19
2018-07-13T06:38:32.952Z,67.18
2018-07-13T06:39:04.524Z,67.14
2018-07-13T06:39:36.125Z,67.18
2018-07-13T06:40:07.737Z,67.27
2018-07-13T06:40:39.389Z,67.29
2018-07-13T06:41:10.968Z,67.36
2018-07-13T06:41:42.551Z,67.36
2018-07-13T06:42:14.162Z,67.33
2018-07-13T06:42:45.753Z,67.30
2018-07-13T06:43:17.350Z,67.44
2018-07-13T06:43:48.954Z,67.49
2018-07-13T06:44:20.541Z,67.42
2018-07-13T06:44:52.179Z,67.31
2018-07-13T06:45:23.785Z,67.15
2018-07-13T06:45:55.360Z,67.07
2018-07-13T06:46:26.929Z,67.16
2018-07-13T06:46:58.529Z,67.07